sensor_id;sensor_type;location;lat;lon;timestamp;P1;durP1;ratioP1;P2;durP2;ratioP2
3795;SDS011;1913;50.660;7.834;2023-06-14T00:00:36;5.97;;;4.70;;
3795;SDS011;1913;50.660;7.834;2023-06-14T00:03:04;6.60;;;5.20;;
3795;SDS011;1913;50.660;7.834;2023-06-14T00:05:29;7.97;;;5.03;;
3795;SDS011;1913;50.660;7.834;2023-06-14T00:07:57;13.03;;;5.47;;
3795;SDS011;1913;50.660;7.834;2023-06-14T00:10:25;6.13;;;5.30;;
3795;SDS011;1913;50.660;7.834;2023-06-14T00:12:55;6.43;;;4.63;;
3795;SDS011;1913;50.660;7.834;2023-06-14T00:15:21;9.40;;;5.23;;
3795;SDS011;1913;50.660;7.834;2023-06-14T00:17:46;7.17;;;4.90;;
3795;SDS011;1913;50.660;7.834;2023-06-14T00:20:12;9.20;;;4.47;;
3795;SDS011;1913;50.660;7.834;2023-06-14T00:22:37;7.67;;;4.23;;
3795;SDS011;1913;50.660;7.834;2023-06-14T00:25:03;6.30;;;4.37;;
3795;SDS011;1913;50.660;7.834;2023-06-14T00:27:30;7.50;;;4.47;;
3795;SDS011;1913;50.660;7.834;2023-06-14T00:29:55;8.27;;;4.87;;
3795;SDS011;1913;50.660;7.834;2023-06-14T00:32:23;9.13;;;4.63;;
3795;SDS011;1913;50.660;7.834;2023-06-14T00:34:50;7.23;;;4.47;;
3795;SDS011;1913;50.660;7.834;2023-06-14T00:37:16;4.97;;;3.93;;
3795;SDS011;1913;50.660;7.834;2023-06-14T00:39:41;7.17;;;4.63;;
3795;SDS011;1913;50.660;7.834;2023-06-14T00:42:06;6.10;;;3.87;;
3795;SDS011;1913;50.660;7.834;2023-06-14T00:44:32;6.07;;;4.27;;
3795;SDS011;1913;50.660;7.834;2023-06-14T00:46:57;9.87;;;4.33;;
3795;SDS011;1913;50.660;7.834;2023-06-14T00:49:22;14.03;;;4.70;;
3795;SDS011;1913;50.660;7.834;2023-06-14T00:51:48;8.07;;;4.53;;
3795;SDS011;1913;50.660;7.834;2023-06-14T00:54:14;8.77;;;4.20;;
3795;SDS011;1913;50.660;7.834;2023-06-14T00:56:39;9.40;;;4.63;;
3795;SDS011;1913;50.660;7.834;2023-06-14T00:59:05;9.83;;;3.97;;
3795;SDS011;1913;50.660;7.834;2023-06-14T01:01:31;7.60;;;4.57;;
3795;SDS011;1913;50.660;7.834;2023-06-14T01:03:58;7.33;;;4.53;;
3795;SDS011;1913;50.660;7.834;2023-06-14T01:09:32;9.73;;;4.07;;
3795;SDS011;1913;50.660;7.834;2023-06-14T01:14:46;6.97;;;4.60;;
3795;SDS011;1913;50.660;7.834;2023-06-14T01:17:13;6.70;;;4.30;;
3795;SDS011;1913;50.660;7.834;2023-06-14T01:19:42;6.87;;;4.23;;
3795;SDS011;1913;50.660;7.834;2023-06-14T01:22:08;5.20;;;3.97;;
3795;SDS011;1913;50.660;7.834;2023-06-14T01:24:34;9.60;;;4.67;;
3795;SDS011;1913;50.660;7.834;2023-06-14T01:26:59;7.70;;;4.10;;
3795;SDS011;1913;50.660;7.834;2023-06-14T01:29:27;6.73;;;4.07;;
3795;SDS011;1913;50.660;7.834;2023-06-14T01:31:57;5.97;;;4.00;;
3795;SDS011;1913;50.660;7.834;2023-06-14T01:34:23;6.00;;;4.13;;
3795;SDS011;1913;50.660;7.834;2023-06-14T01:36:49;9.77;;;4.23;;
3795;SDS011;1913;50.660;7.834;2023-06-14T01:39:15;7.50;;;4.30;;
3795;SDS011;1913;50.660;7.834;2023-06-14T01:41:42;6.87;;;4.30;;
3795;SDS011;1913;50.660;7.834;2023-06-14T01:44:09;12.73;;;4.10;;
3795;SDS011;1913;50.660;7.834;2023-06-14T01:46:36;7.97;;;4.63;;
3795;SDS011;1913;50.660;7.834;2023-06-14T01:49:02;6.90;;;4.20;;
3795;SDS011;1913;50.660;7.834;2023-06-14T01:51:27;6.70;;;4.03;;
3795;SDS011;1913;50.660;7.834;2023-06-14T01:53:52;7.43;;;3.90;;
3795;SDS011;1913;50.660;7.834;2023-06-14T01:56:18;7.17;;;4.20;;
3795;SDS011;1913;50.660;7.834;2023-06-14T01:58:43;8.80;;;4.70;;
3795;SDS011;1913;50.660;7.834;2023-06-14T02:01:08;12.77;;;4.67;;
3795;SDS011;1913;50.660;7.834;2023-06-14T02:03:34;7.80;;;4.30;;
3795;SDS011;1913;50.660;7.834;2023-06-14T02:05:59;12.37;;;5.20;;
3795;SDS011;1913;50.660;7.834;2023-06-14T02:08:24;5.70;;;4.00;;
3795;SDS011;1913;50.660;7.834;2023-06-14T02:10:50;7.67;;;4.47;;
3795;SDS011;1913;50.660;7.834;2023-06-14T02:13:16;6.07;;;4.20;;
3795;SDS011;1913;50.660;7.834;2023-06-14T02:15:41;10.63;;;4.40;;
3795;SDS011;1913;50.660;7.834;2023-06-14T02:18:08;7.93;;;3.90;;
3795;SDS011;1913;50.660;7.834;2023-06-14T02:20:35;5.40;;;4.03;;
3795;SDS011;1913;50.660;7.834;2023-06-14T02:23:00;10.83;;;4.00;;
3795;SDS011;1913;50.660;7.834;2023-06-14T02:25:26;5.63;;;3.70;;
3795;SDS011;1913;50.660;7.834;2023-06-14T02:27:53;7.23;;;4.17;;
3795;SDS011;1913;50.660;7.834;2023-06-14T02:30:19;8.23;;;4.83;;
3795;SDS011;1913;50.660;7.834;2023-06-14T02:32:45;10.93;;;4.30;;
3795;SDS011;1913;50.660;7.834;2023-06-14T02:35:11;6.80;;;4.77;;
3795;SDS011;1913;50.660;7.834;2023-06-14T02:37:38;9.77;;;4.37;;
3795;SDS011;1913;50.660;7.834;2023-06-14T02:40:04;7.37;;;4.73;;
3795;SDS011;1913;50.660;7.834;2023-06-14T02:42:32;9.13;;;4.30;;
3795;SDS011;1913;50.660;7.834;2023-06-14T02:44:57;7.77;;;4.40;;
3795;SDS011;1913;50.660;7.834;2023-06-14T02:47:22;6.83;;;5.17;;
3795;SDS011;1913;50.660;7.834;2023-06-14T02:49:48;7.20;;;4.83;;
3795;SDS011;1913;50.660;7.834;2023-06-14T02:52:13;6.93;;;4.40;;
3795;SDS011;1913;50.660;7.834;2023-06-14T02:54:38;7.77;;;4.17;;
3795;SDS011;1913;50.660;7.834;2023-06-14T02:57:05;6.40;;;4.57;;
3795;SDS011;1913;50.660;7.834;2023-06-14T02:59:32;6.60;;;4.53;;
3795;SDS011;1913;50.660;7.834;2023-06-14T03:01:57;8.83;;;4.40;;
3795;SDS011;1913;50.660;7.834;2023-06-14T03:04:22;7.00;;;4.77;;
3795;SDS011;1913;50.660;7.834;2023-06-14T03:06:50;8.93;;;4.50;;
3795;SDS011;1913;50.660;7.834;2023-06-14T03:09:16;10.43;;;5.50;;
3795;SDS011;1913;50.660;7.834;2023-06-14T03:11:41;9.20;;;5.50;;
3795;SDS011;1913;50.660;7.834;2023-06-14T03:14:06;7.13;;;4.63;;
3795;SDS011;1913;50.660;7.834;2023-06-14T03:16:33;7.73;;;4.30;;
3795;SDS011;1913;50.660;7.834;2023-06-14T03:18:58;7.77;;;4.13;;
3795;SDS011;1913;50.660;7.834;2023-06-14T03:21:24;5.40;;;4.60;;
3795;SDS011;1913;50.660;7.834;2023-06-14T03:23:50;7.00;;;4.77;;
3795;SDS011;1913;50.660;7.834;2023-06-14T03:26:28;7.53;;;4.93;;
3795;SDS011;1913;50.660;7.834;2023-06-14T03:28:59;6.70;;;4.80;;
3795;SDS011;1913;50.660;7.834;2023-06-14T03:31:24;9.13;;;4.83;;
3795;SDS011;1913;50.660;7.834;2023-06-14T03:33:49;7.87;;;5.03;;
3795;SDS011;1913;50.660;7.834;2023-06-14T03:36:15;13.93;;;4.87;;
3795;SDS011;1913;50.660;7.834;2023-06-14T03:38:40;6.37;;;4.33;;
3795;SDS011;1913;50.660;7.834;2023-06-14T03:41:05;8.87;;;4.77;;
3795;SDS011;1913;50.660;7.834;2023-06-14T03:44:27;9.13;;;4.70;;
3795;SDS011;1913;50.660;7.834;2023-06-14T03:46:53;6.53;;;4.67;;
3795;SDS011;1913;50.660;7.834;2023-06-14T03:49:18;10.27;;;4.60;;
3795;SDS011;1913;50.660;7.834;2023-06-14T03:51:43;7.97;;;4.47;;
3795;SDS011;1913;50.660;7.834;2023-06-14T03:54:09;12.03;;;4.40;;
3795;SDS011;1913;50.660;7.834;2023-06-14T03:56:35;6.57;;;4.23;;
3795;SDS011;1913;50.660;7.834;2023-06-14T03:59:01;10.20;;;4.63;;
3795;SDS011;1913;50.660;7.834;2023-06-14T04:01:26;11.00;;;4.33;;
3795;SDS011;1913;50.660;7.834;2023-06-14T04:03:54;7.20;;;4.70;;
3795;SDS011;1913;50.660;7.834;2023-06-14T04:06:20;6.70;;;4.63;;
3795;SDS011;1913;50.660;7.834;2023-06-14T04:08:46;7.57;;;4.17;;
3795;SDS011;1913;50.660;7.834;2023-06-14T04:11:11;8.83;;;4.40;;
3795;SDS011;1913;50.660;7.834;2023-06-14T04:20:36;8.10;;;4.30;;
3795;SDS011;1913;50.660;7.834;2023-06-14T04:24:00;7.87;;;3.90;;
3795;SDS011;1913;50.660;7.834;2023-06-14T04:26:30;9.57;;;4.27;;
3795;SDS011;1913;50.660;7.834;2023-06-14T04:28:58;7.90;;;4.03;;
3795;SDS011;1913;50.660;7.834;2023-06-14T04:32:02;8.20;;;4.00;;
3795;SDS011;1913;50.660;7.834;2023-06-14T04:34:28;6.07;;;4.27;;
3795;SDS011;1913;50.660;7.834;2023-06-14T04:36:59;5.30;;;4.00;;
3795;SDS011;1913;50.660;7.834;2023-06-14T04:39:26;11.60;;;4.10;;
3795;SDS011;1913;50.660;7.834;2023-06-14T04:41:52;9.13;;;4.13;;
3795;SDS011;1913;50.660;7.834;2023-06-14T04:44:21;9.77;;;3.80;;
3795;SDS011;1913;50.660;7.834;2023-06-14T04:46:49;5.10;;;4.20;;
3795;SDS011;1913;50.660;7.834;2023-06-14T04:49:15;12.37;;;4.30;;
3795;SDS011;1913;50.660;7.834;2023-06-14T04:51:42;5.47;;;3.87;;
3795;SDS011;1913;50.660;7.834;2023-06-14T04:54:07;6.60;;;4.30;;
3795;SDS011;1913;50.660;7.834;2023-06-14T04:56:35;7.53;;;4.30;;
3795;SDS011;1913;50.660;7.834;2023-06-14T04:59:02;6.73;;;4.30;;
3795;SDS011;1913;50.660;7.834;2023-06-14T05:01:29;5.07;;;3.60;;
3795;SDS011;1913;50.660;7.834;2023-06-14T05:03:56;7.37;;;4.50;;
3795;SDS011;1913;50.660;7.834;2023-06-14T05:06:22;8.63;;;4.03;;
3795;SDS011;1913;50.660;7.834;2023-06-14T05:08:47;5.50;;;3.47;;
3795;SDS011;1913;50.660;7.834;2023-06-14T05:11:12;4.03;;;3.43;;
3795;SDS011;1913;50.660;7.834;2023-06-14T05:13:38;6.47;;;3.70;;
3795;SDS011;1913;50.660;7.834;2023-06-14T05:16:04;5.07;;;3.83;;
3795;SDS011;1913;50.660;7.834;2023-06-14T05:18:31;9.40;;;4.23;;
3795;SDS011;1913;50.660;7.834;2023-06-14T05:20:59;7.00;;;4.37;;
3795;SDS011;1913;50.660;7.834;2023-06-14T05:23:24;6.60;;;3.47;;
3795;SDS011;1913;50.660;7.834;2023-06-14T05:25:50;6.80;;;3.40;;
3795;SDS011;1913;50.660;7.834;2023-06-14T05:28:15;8.70;;;4.10;;
3795;SDS011;1913;50.660;7.834;2023-06-14T05:30:41;5.67;;;3.97;;
3795;SDS011;1913;50.660;7.834;2023-06-14T05:33:07;5.20;;;3.77;;
3795;SDS011;1913;50.660;7.834;2023-06-14T05:35:32;6.53;;;3.60;;
3795;SDS011;1913;50.660;7.834;2023-06-14T05:37:58;6.20;;;4.03;;
3795;SDS011;1913;50.660;7.834;2023-06-14T05:40:23;5.80;;;3.67;;
3795;SDS011;1913;50.660;7.834;2023-06-14T05:42:48;7.37;;;3.60;;
3795;SDS011;1913;50.660;7.834;2023-06-14T05:45:14;5.67;;;3.47;;
3795;SDS011;1913;50.660;7.834;2023-06-14T05:47:40;8.10;;;3.80;;
3795;SDS011;1913;50.660;7.834;2023-06-14T05:50:06;8.73;;;3.70;;
3795;SDS011;1913;50.660;7.834;2023-06-14T05:52:32;4.57;;;3.63;;
3795;SDS011;1913;50.660;7.834;2023-06-14T05:54:58;6.70;;;3.60;;
3795;SDS011;1913;50.660;7.834;2023-06-14T05:57:23;4.80;;;3.13;;
3795;SDS011;1913;50.660;7.834;2023-06-14T05:59:49;6.23;;;3.23;;
3795;SDS011;1913;50.660;7.834;2023-06-14T06:02:15;3.83;;;3.03;;
3795;SDS011;1913;50.660;7.834;2023-06-14T06:04:40;5.67;;;3.37;;
3795;SDS011;1913;50.660;7.834;2023-06-14T06:07:06;4.07;;;2.80;;
3795;SDS011;1913;50.660;7.834;2023-06-14T06:09:31;7.77;;;3.53;;
3795;SDS011;1913;50.660;7.834;2023-06-14T06:11:57;7.03;;;3.27;;
3795;SDS011;1913;50.660;7.834;2023-06-14T06:14:22;5.33;;;2.80;;
3795;SDS011;1913;50.660;7.834;2023-06-14T06:16:48;5.60;;;2.90;;
3795;SDS011;1913;50.660;7.834;2023-06-14T06:19:13;8.13;;;2.67;;
3795;SDS011;1913;50.660;7.834;2023-06-14T06:21:38;4.03;;;2.60;;
3795;SDS011;1913;50.660;7.834;2023-06-14T06:24:04;5.73;;;2.70;;
3795;SDS011;1913;50.660;7.834;2023-06-14T06:26:30;7.20;;;3.03;;
3795;SDS011;1913;50.660;7.834;2023-06-14T06:28:57;4.07;;;3.00;;
3795;SDS011;1913;50.660;7.834;2023-06-14T06:31:22;8.40;;;2.77;;
3795;SDS011;1913;50.660;7.834;2023-06-14T06:33:48;4.40;;;3.10;;
3795;SDS011;1913;50.660;7.834;2023-06-14T06:36:13;4.57;;;3.17;;
3795;SDS011;1913;50.660;7.834;2023-06-14T06:38:39;6.43;;;2.80;;
3795;SDS011;1913;50.660;7.834;2023-06-14T06:41:04;3.63;;;2.80;;
3795;SDS011;1913;50.660;7.834;2023-06-14T06:43:29;4.73;;;3.13;;
3795;SDS011;1913;50.660;7.834;2023-06-14T06:45:55;5.60;;;3.13;;
3795;SDS011;1913;50.660;7.834;2023-06-14T06:48:20;5.53;;;2.70;;
3795;SDS011;1913;50.660;7.834;2023-06-14T06:50:45;6.40;;;3.40;;
3795;SDS011;1913;50.660;7.834;2023-06-14T06:53:11;9.50;;;3.37;;
3795;SDS011;1913;50.660;7.834;2023-06-14T06:55:36;4.53;;;3.43;;
3795;SDS011;1913;50.660;7.834;2023-06-14T06:58:01;4.20;;;2.70;;
3795;SDS011;1913;50.660;7.834;2023-06-14T07:00:29;5.47;;;3.20;;
3795;SDS011;1913;50.660;7.834;2023-06-14T07:02:55;7.10;;;3.03;;
3795;SDS011;1913;50.660;7.834;2023-06-14T07:05:20;8.60;;;3.17;;
3795;SDS011;1913;50.660;7.834;2023-06-14T07:07:45;4.57;;;3.03;;
3795;SDS011;1913;50.660;7.834;2023-06-14T07:10:10;5.30;;;2.93;;
3795;SDS011;1913;50.660;7.834;2023-06-14T07:12:36;9.77;;;2.60;;
3795;SDS011;1913;50.660;7.834;2023-06-14T07:15:04;4.17;;;2.63;;
3795;SDS011;1913;50.660;7.834;2023-06-14T07:17:33;4.70;;;2.70;;
3795;SDS011;1913;50.660;7.834;2023-06-14T07:19:59;2.97;;;2.60;;
3795;SDS011;1913;50.660;7.834;2023-06-14T07:22:25;9.87;;;3.07;;
3795;SDS011;1913;50.660;7.834;2023-06-14T07:24:51;3.20;;;2.53;;
3795;SDS011;1913;50.660;7.834;2023-06-14T07:27:16;2.60;;;2.33;;
3795;SDS011;1913;50.660;7.834;2023-06-14T07:29:42;3.53;;;2.70;;
3795;SDS011;1913;50.660;7.834;2023-06-14T07:32:07;8.50;;;2.60;;
3795;SDS011;1913;50.660;7.834;2023-06-14T07:34:32;3.00;;;2.70;;
3795;SDS011;1913;50.660;7.834;2023-06-14T07:36:58;4.90;;;2.73;;
3795;SDS011;1913;50.660;7.834;2023-06-14T07:39:23;3.60;;;2.30;;
3795;SDS011;1913;50.660;7.834;2023-06-14T07:41:48;5.87;;;2.93;;
3795;SDS011;1913;50.660;7.834;2023-06-14T07:44:14;4.10;;;2.87;;
3795;SDS011;1913;50.660;7.834;2023-06-14T07:46:40;4.40;;;2.53;;
3795;SDS011;1913;50.660;7.834;2023-06-14T07:49:06;2.77;;;2.30;;
3795;SDS011;1913;50.660;7.834;2023-06-14T07:51:32;6.23;;;2.60;;
3795;SDS011;1913;50.660;7.834;2023-06-14T07:53:59;3.47;;;2.60;;
3795;SDS011;1913;50.660;7.834;2023-06-14T07:56:26;2.70;;;2.43;;
3795;SDS011;1913;50.660;7.834;2023-06-14T07:58:51;4.10;;;2.07;;
3795;SDS011;1913;50.660;7.834;2023-06-14T08:01:16;6.37;;;2.50;;
3795;SDS011;1913;50.660;7.834;2023-06-14T08:03:42;2.80;;;2.30;;
3795;SDS011;1913;50.660;7.834;2023-06-14T08:06:08;3.50;;;2.43;;
3795;SDS011;1913;50.660;7.834;2023-06-14T08:08:33;3.53;;;2.13;;
3795;SDS011;1913;50.660;7.834;2023-06-14T08:10:58;3.10;;;2.17;;
3795;SDS011;1913;50.660;7.834;2023-06-14T08:13:24;3.40;;;2.20;;
3795;SDS011;1913;50.660;7.834;2023-06-14T08:15:49;3.10;;;2.30;;
3795;SDS011;1913;50.660;7.834;2023-06-14T08:18:15;2.50;;;2.30;;
3795;SDS011;1913;50.660;7.834;2023-06-14T08:20:40;4.40;;;2.47;;
3795;SDS011;1913;50.660;7.834;2023-06-14T08:23:06;4.03;;;2.30;;
3795;SDS011;1913;50.660;7.834;2023-06-14T08:25:31;5.83;;;2.50;;
3795;SDS011;1913;50.660;7.834;2023-06-14T08:27:58;2.50;;;2.30;;
3795;SDS011;1913;50.660;7.834;2023-06-14T08:30:24;5.00;;;2.73;;
3795;SDS011;1913;50.660;7.834;2023-06-14T08:32:50;2.80;;;2.30;;
3795;SDS011;1913;50.660;7.834;2023-06-14T08:35:16;2.77;;;2.30;;
3795;SDS011;1913;50.660;7.834;2023-06-14T08:37:43;5.20;;;2.70;;
3795;SDS011;1913;50.660;7.834;2023-06-14T08:40:12;8.37;;;2.40;;
3795;SDS011;1913;50.660;7.834;2023-06-14T08:42:44;4.20;;;2.43;;
3795;SDS011;1913;50.660;7.834;2023-06-14T08:45:11;3.20;;;2.47;;
3795;SDS011;1913;50.660;7.834;2023-06-14T08:47:36;3.80;;;2.57;;
3795;SDS011;1913;50.660;7.834;2023-06-14T08:50:02;6.40;;;2.40;;
3795;SDS011;1913;50.660;7.834;2023-06-14T08:52:29;3.40;;;2.33;;
3795;SDS011;1913;50.660;7.834;2023-06-14T08:55:05;2.20;;;2.00;;
3795;SDS011;1913;50.660;7.834;2023-06-14T08:57:31;2.53;;;1.93;;
3795;SDS011;1913;50.660;7.834;2023-06-14T08:59:58;3.77;;;2.00;;
3795;SDS011;1913;50.660;7.834;2023-06-14T09:02:29;2.43;;;2.23;;
3795;SDS011;1913;50.660;7.834;2023-06-14T09:04:55;7.33;;;2.13;;
3795;SDS011;1913;50.660;7.834;2023-06-14T09:07:25;2.60;;;2.30;;
3795;SDS011;1913;50.660;7.834;2023-06-14T09:10:04;2.63;;;2.10;;
3795;SDS011;1913;50.660;7.834;2023-06-14T09:12:35;3.00;;;2.10;;
3795;SDS011;1913;50.660;7.834;2023-06-14T09:15:00;2.60;;;1.97;;
3795;SDS011;1913;50.660;7.834;2023-06-14T09:17:31;2.40;;;1.80;;
3795;SDS011;1913;50.660;7.834;2023-06-14T09:19:58;4.00;;;2.13;;
3795;SDS011;1913;50.660;7.834;2023-06-14T09:22:23;4.23;;;2.30;;
3795;SDS011;1913;50.660;7.834;2023-06-14T09:24:49;3.30;;;2.37;;
3795;SDS011;1913;50.660;7.834;2023-06-14T09:27:15;3.00;;;2.30;;
3795;SDS011;1913;50.660;7.834;2023-06-14T09:29:41;3.53;;;2.17;;
3795;SDS011;1913;50.660;7.834;2023-06-14T09:32:06;3.57;;;2.10;;
3795;SDS011;1913;50.660;7.834;2023-06-14T09:34:32;3.47;;;1.90;;
3795;SDS011;1913;50.660;7.834;2023-06-14T09:36:58;2.80;;;1.93;;
3795;SDS011;1913;50.660;7.834;2023-06-14T09:39:23;3.70;;;2.10;;
3795;SDS011;1913;50.660;7.834;2023-06-14T09:41:50;2.73;;;2.00;;
3795;SDS011;1913;50.660;7.834;2023-06-14T09:44:15;4.10;;;2.10;;
3795;SDS011;1913;50.660;7.834;2023-06-14T09:46:43;4.17;;;1.90;;
3795;SDS011;1913;50.660;7.834;2023-06-14T09:49:09;5.40;;;2.10;;
3795;SDS011;1913;50.660;7.834;2023-06-14T09:51:35;2.40;;;1.93;;
3795;SDS011;1913;50.660;7.834;2023-06-14T09:54:07;7.83;;;2.10;;
3795;SDS011;1913;50.660;7.834;2023-06-14T09:56:44;6.17;;;2.10;;
3795;SDS011;1913;50.660;7.834;2023-06-14T09:59:10;2.43;;;1.97;;
3795;SDS011;1913;50.660;7.834;2023-06-14T10:01:43;4.83;;;2.17;;
3795;SDS011;1913;50.660;7.834;2023-06-14T10:04:10;1.80;;;1.70;;
3795;SDS011;1913;50.660;7.834;2023-06-14T10:06:43;3.73;;;1.80;;
3795;SDS011;1913;50.660;7.834;2023-06-14T10:09:11;2.30;;;2.00;;
3795;SDS011;1913;50.660;7.834;2023-06-14T10:11:37;1.93;;;1.60;;
3795;SDS011;1913;50.660;7.834;2023-06-14T10:14:10;2.00;;;1.80;;
3795;SDS011;1913;50.660;7.834;2023-06-14T10:16:38;2.07;;;1.50;;
3795;SDS011;1913;50.660;7.834;2023-06-14T10:19:27;4.50;;;1.60;;
3795;SDS011;1913;50.660;7.834;2023-06-14T10:24:46;2.00;;;1.80;;
3795;SDS011;1913;50.660;7.834;2023-06-14T10:27:13;3.13;;;1.70;;
3795;SDS011;1913;50.660;7.834;2023-06-14T10:32:23;2.03;;;1.80;;
3795;SDS011;1913;50.660;7.834;2023-06-14T10:34:56;3.00;;;1.83;;
3795;SDS011;1913;50.660;7.834;2023-06-14T10:37:25;2.40;;;1.93;;
3795;SDS011;1913;50.660;7.834;2023-06-14T10:39:51;5.20;;;2.13;;
3795;SDS011;1913;50.660;7.834;2023-06-14T10:42:16;4.40;;;1.90;;
3795;SDS011;1913;50.660;7.834;2023-06-14T10:49:54;2.13;;;1.90;;
3795;SDS011;1913;50.660;7.834;2023-06-14T10:52:21;3.77;;;2.03;;
3795;SDS011;1913;50.660;7.834;2023-06-14T10:54:59;2.47;;;2.07;;
3795;SDS011;1913;50.660;7.834;2023-06-14T10:57:26;7.30;;;2.50;;
3795;SDS011;1913;50.660;7.834;2023-06-14T10:59:52;2.27;;;2.07;;
3795;SDS011;1913;50.660;7.834;2023-06-14T11:04:51;3.63;;;2.30;;
3795;SDS011;1913;50.660;7.834;2023-06-14T11:12:48;5.00;;;2.50;;
3795;SDS011;1913;50.660;7.834;2023-06-14T11:15:14;4.43;;;2.60;;
3795;SDS011;1913;50.660;7.834;2023-06-14T11:17:39;6.27;;;2.60;;
3795;SDS011;1913;50.660;7.834;2023-06-14T11:20:16;2.80;;;2.20;;
3795;SDS011;1913;50.660;7.834;2023-06-14T11:22:42;3.47;;;2.50;;
3795;SDS011;1913;50.660;7.834;2023-06-14T11:25:13;6.40;;;3.13;;
3795;SDS011;1913;50.660;7.834;2023-06-14T11:27:41;5.23;;;2.40;;
3795;SDS011;1913;50.660;7.834;2023-06-14T11:30:07;6.50;;;2.30;;
3795;SDS011;1913;50.660;7.834;2023-06-14T11:32:34;11.00;;;2.57;;
3795;SDS011;1913;50.660;7.834;2023-06-14T11:34:59;6.90;;;2.70;;
3795;SDS011;1913;50.660;7.834;2023-06-14T11:37:25;6.80;;;2.40;;
3795;SDS011;1913;50.660;7.834;2023-06-14T11:39:56;4.17;;;2.50;;
3795;SDS011;1913;50.660;7.834;2023-06-14T11:42:22;3.30;;;2.53;;
3795;SDS011;1913;50.660;7.834;2023-06-14T11:44:47;3.80;;;2.60;;
3795;SDS011;1913;50.660;7.834;2023-06-14T11:47:14;4.83;;;2.73;;
3795;SDS011;1913;50.660;7.834;2023-06-14T11:49:39;4.63;;;2.60;;
3795;SDS011;1913;50.660;7.834;2023-06-14T11:52:04;4.57;;;2.30;;
3795;SDS011;1913;50.660;7.834;2023-06-14T11:54:32;3.60;;;2.47;;
3795;SDS011;1913;50.660;7.834;2023-06-14T11:56:57;4.37;;;2.30;;
3795;SDS011;1913;50.660;7.834;2023-06-14T11:59:23;4.70;;;2.87;;
3795;SDS011;1913;50.660;7.834;2023-06-14T12:01:49;3.03;;;2.60;;
3795;SDS011;1913;50.660;7.834;2023-06-14T12:04:22;4.73;;;2.50;;
3795;SDS011;1913;50.660;7.834;2023-06-14T12:06:48;4.90;;;2.30;;
3795;SDS011;1913;50.660;7.834;2023-06-14T12:09:14;3.10;;;2.40;;
3795;SDS011;1913;50.660;7.834;2023-06-14T12:11:43;2.93;;;2.63;;
3795;SDS011;1913;50.660;7.834;2023-06-14T12:14:08;2.70;;;2.50;;
3795;SDS011;1913;50.660;7.834;2023-06-14T12:16:35;3.57;;;2.43;;
3795;SDS011;1913;50.660;7.834;2023-06-14T12:19:09;5.97;;;2.30;;
3795;SDS011;1913;50.660;7.834;2023-06-14T12:21:42;4.30;;;2.40;;
3795;SDS011;1913;50.660;7.834;2023-06-14T12:24:12;2.87;;;2.57;;
3795;SDS011;1913;50.660;7.834;2023-06-14T12:26:38;3.80;;;2.60;;
3795;SDS011;1913;50.660;7.834;2023-06-14T12:29:05;4.50;;;2.80;;
3795;SDS011;1913;50.660;7.834;2023-06-14T12:31:32;3.17;;;2.00;;
3795;SDS011;1913;50.660;7.834;2023-06-14T12:33:57;4.73;;;2.70;;
3795;SDS011;1913;50.660;7.834;2023-06-14T12:36:23;3.90;;;2.10;;
3795;SDS011;1913;50.660;7.834;2023-06-14T12:38:48;4.10;;;2.87;;
3795;SDS011;1913;50.660;7.834;2023-06-14T12:41:14;3.23;;;2.30;;
3795;SDS011;1913;50.660;7.834;2023-06-14T12:43:43;3.67;;;2.60;;
3795;SDS011;1913;50.660;7.834;2023-06-14T12:46:08;3.93;;;2.57;;
3795;SDS011;1913;50.660;7.834;2023-06-14T12:48:33;3.57;;;2.67;;
3795;SDS011;1913;50.660;7.834;2023-06-14T12:50:59;2.90;;;2.20;;
3795;SDS011;1913;50.660;7.834;2023-06-14T12:53:24;5.70;;;2.30;;
3795;SDS011;1913;50.660;7.834;2023-06-14T12:55:50;6.80;;;2.80;;
3795;SDS011;1913;50.660;7.834;2023-06-14T12:58:15;2.90;;;2.50;;
3795;SDS011;1913;50.660;7.834;2023-06-14T13:00:42;4.13;;;2.57;;
3795;SDS011;1913;50.660;7.834;2023-06-14T13:03:07;3.60;;;3.00;;
3795;SDS011;1913;50.660;7.834;2023-06-14T13:05:34;3.80;;;2.53;;
3795;SDS011;1913;50.660;7.834;2023-06-14T13:08:00;4.03;;;2.30;;
3795;SDS011;1913;50.660;7.834;2023-06-14T13:10:25;6.73;;;2.60;;
3795;SDS011;1913;50.660;7.834;2023-06-14T13:12:51;4.53;;;2.77;;
3795;SDS011;1913;50.660;7.834;2023-06-14T13:15:16;6.30;;;2.57;;
3795;SDS011;1913;50.660;7.834;2023-06-14T13:17:42;6.90;;;2.70;;
3795;SDS011;1913;50.660;7.834;2023-06-14T13:20:13;3.20;;;2.60;;
3795;SDS011;1913;50.660;7.834;2023-06-14T13:22:38;3.17;;;2.60;;
3795;SDS011;1913;50.660;7.834;2023-06-14T13:25:04;3.93;;;2.90;;
3795;SDS011;1913;50.660;7.834;2023-06-14T13:27:30;3.07;;;2.77;;
3795;SDS011;1913;50.660;7.834;2023-06-14T13:29:55;2.50;;;2.20;;
3795;SDS011;1913;50.660;7.834;2023-06-14T13:32:21;6.77;;;2.50;;
3795;SDS011;1913;50.660;7.834;2023-06-14T13:34:47;2.80;;;2.60;;
3795;SDS011;1913;50.660;7.834;2023-06-14T13:37:13;4.93;;;2.30;;
3795;SDS011;1913;50.660;7.834;2023-06-14T13:39:39;2.73;;;2.23;;
3795;SDS011;1913;50.660;7.834;2023-06-14T13:42:04;2.77;;;2.53;;
3795;SDS011;1913;50.660;7.834;2023-06-14T13:44:30;4.57;;;2.47;;
3795;SDS011;1913;50.660;7.834;2023-06-14T13:46:55;4.20;;;2.50;;
3795;SDS011;1913;50.660;7.834;2023-06-14T13:49:21;3.50;;;2.63;;
3795;SDS011;1913;50.660;7.834;2023-06-14T13:51:46;3.20;;;2.90;;
3795;SDS011;1913;50.660;7.834;2023-06-14T13:54:12;7.40;;;2.33;;
3795;SDS011;1913;50.660;7.834;2023-06-14T13:56:39;7.27;;;2.43;;
3795;SDS011;1913;50.660;7.834;2023-06-14T13:59:04;5.33;;;2.53;;
3795;SDS011;1913;50.660;7.834;2023-06-14T14:01:30;3.50;;;2.40;;
3795;SDS011;1913;50.660;7.834;2023-06-14T14:03:55;4.93;;;2.63;;
3795;SDS011;1913;50.660;7.834;2023-06-14T14:06:21;3.97;;;2.40;;
3795;SDS011;1913;50.660;7.834;2023-06-14T14:08:46;4.93;;;2.50;;
3795;SDS011;1913;50.660;7.834;2023-06-14T14:11:11;2.63;;;2.30;;
3795;SDS011;1913;50.660;7.834;2023-06-14T14:13:37;2.80;;;2.40;;
3795;SDS011;1913;50.660;7.834;2023-06-14T14:16:04;3.27;;;2.60;;
3795;SDS011;1913;50.660;7.834;2023-06-14T14:18:30;4.77;;;2.87;;
3795;SDS011;1913;50.660;7.834;2023-06-14T14:20:55;3.83;;;2.30;;
3795;SDS011;1913;50.660;7.834;2023-06-14T14:23:21;5.83;;;2.40;;
3795;SDS011;1913;50.660;7.834;2023-06-14T14:25:47;3.70;;;2.43;;
3795;SDS011;1913;50.660;7.834;2023-06-14T14:28:12;6.40;;;2.93;;
3795;SDS011;1913;50.660;7.834;2023-06-14T14:30:40;2.60;;;2.40;;
3795;SDS011;1913;50.660;7.834;2023-06-14T14:33:06;2.50;;;2.30;;
3795;SDS011;1913;50.660;7.834;2023-06-14T14:35:31;3.97;;;2.40;;
3795;SDS011;1913;50.660;7.834;2023-06-14T14:37:57;2.70;;;2.50;;
3795;SDS011;1913;50.660;7.834;2023-06-14T14:40:22;2.53;;;2.33;;
3795;SDS011;1913;50.660;7.834;2023-06-14T14:42:48;5.63;;;2.97;;
3795;SDS011;1913;50.660;7.834;2023-06-14T14:45:13;3.30;;;2.50;;
3795;SDS011;1913;50.660;7.834;2023-06-14T14:47:38;2.60;;;2.40;;
3795;SDS011;1913;50.660;7.834;2023-06-14T14:50:04;3.00;;;2.40;;
3795;SDS011;1913;50.660;7.834;2023-06-14T14:52:33;4.37;;;2.60;;
3795;SDS011;1913;50.660;7.834;2023-06-14T14:54:58;4.00;;;2.70;;
3795;SDS011;1913;50.660;7.834;2023-06-14T14:57:25;8.10;;;3.60;;
3795;SDS011;1913;50.660;7.834;2023-06-14T14:59:51;4.67;;;2.80;;
3795;SDS011;1913;50.660;7.834;2023-06-14T15:02:16;2.80;;;2.60;;
3795;SDS011;1913;50.660;7.834;2023-06-14T15:04:42;5.20;;;2.83;;
3795;SDS011;1913;50.660;7.834;2023-06-14T15:07:07;2.67;;;2.47;;
3795;SDS011;1913;50.660;7.834;2023-06-14T15:09:33;4.87;;;2.67;;
3795;SDS011;1913;50.660;7.834;2023-06-14T15:11:58;2.97;;;2.73;;
3795;SDS011;1913;50.660;7.834;2023-06-14T15:14:23;6.80;;;2.50;;
3795;SDS011;1913;50.660;7.834;2023-06-14T15:16:48;3.13;;;2.50;;
3795;SDS011;1913;50.660;7.834;2023-06-14T15:19:14;4.00;;;2.80;;
3795;SDS011;1913;50.660;7.834;2023-06-14T15:21:42;4.20;;;2.50;;
3795;SDS011;1913;50.660;7.834;2023-06-14T15:24:07;3.60;;;2.47;;
3795;SDS011;1913;50.660;7.834;2023-06-14T15:26:33;3.73;;;2.50;;
3795;SDS011;1913;50.660;7.834;2023-06-14T15:28:58;3.33;;;2.90;;
3795;SDS011;1913;50.660;7.834;2023-06-14T15:31:23;5.43;;;2.37;;
3795;SDS011;1913;50.660;7.834;2023-06-14T15:33:52;3.00;;;2.67;;
3795;SDS011;1913;50.660;7.834;2023-06-14T15:36:17;2.77;;;2.57;;
3795;SDS011;1913;50.660;7.834;2023-06-14T15:38:42;3.07;;;2.50;;
3795;SDS011;1913;50.660;7.834;2023-06-14T15:41:08;4.20;;;2.73;;
3795;SDS011;1913;50.660;7.834;2023-06-14T15:43:33;3.67;;;2.40;;